Time;durP1;ratioP1;P1;durP2;ratioP2;P2;SDS_P1;SDS_P2;PMS_P1;PMS_P2;Temp;Humidity;BMP_temperature;BMP_pressure;BME280_temperature;BME280_humidity;BME280_pressure;Samples;Min_cycle;Max_cycle;Signal;HPM_P1;HPM_P2
2022/01/27 00:01:32;;;;;;;118.78;42.90;;;;;;;3.51;100.00;101979.50;4938220;29;20517;-75
2022/01/27 00:06:26;;;;;;;122.47;44.58;;;;;;;3.48;100.00;101973.63;4914429;29;20043;-76
2022/01/27 00:08:58;;;;;;;122.82;45.33;;;;;;;3.51;100.00;101969.13;4917487;28;20054;-76
2022/01/27 00:11:23;;;;;;;118.32;44.92;;;;;;;3.53;100.00;101963.03;4904420;28;20066;-76
2022/01/27 00:13:58;;;;;;;123.00;46.95;;;;;;;3.53;100.00;101961.28;4931115;28;20067;-77
2022/01/27 00:16:28;;;;;;;124.68;45.92;;;;;;;3.57;100.00;101962.81;4915564;29;20398;-76
2022/01/27 00:18:54;;;;;;;122.30;45.03;;;;;;;3.61;100.00;101956.56;4930534;28;20521;-76
2022/01/27 00:21:23;;;;;;;117.28;46.33;;;;;;;3.59;100.00;101945.44;4915530;29;20434;-76
2022/01/27 00:23:50;;;;;;;131.73;48.10;;;;;;;3.60;100.00;101944.53;4930608;28;20475;-76
2022/01/27 00:26:16;;;;;;;133.65;47.50;;;;;;;3.63;100.00;101935.75;4921276;29;20085;-77
2022/01/27 00:28:43;;;;;;;134.05;47.10;;;;;;;3.63;100.00;101935.75;4923222;29;20154;-76
2022/01/27 00:31:13;;;;;;;144.65;47.67;;;;;;;3.62;100.00;101915.91;4923292;28;20037;-75
2022/01/27 00:33:39;;;;;;;126.82;47.55;;;;;;;3.61;100.00;101899.50;4905032;29;20517;-76
2022/01/27 00:36:05;;;;;;;131.82;47.65;;;;;;;3.58;100.00;101886.69;4926538;28;20046;-75
2022/01/27 00:38:32;;;;;;;136.00;49.60;;;;;;;3.59;100.00;101887.50;4918692;29;20038;-75
2022/01/27 00:40:58;;;;;;;133.75;49.08;;;;;;;3.65;100.00;101872.47;4931836;28;20039;-75
2022/01/27 00:43:25;;;;;;;128.95;49.45;;;;;;;3.60;100.00;101855.44;4916982;29;20107;-74
2022/01/27 00:45:51;;;;;;;127.20;48.28;;;;;;;3.61;100.00;101862.34;4939416;28;20110;-76
2022/01/27 00:48:17;;;;;;;140.98;50.15;;;;;;;3.58;100.00;101857.28;4919528;29;20067;-76
2022/01/27 00:50:47;;;;;;;132.45;50.13;;;;;;;3.64;100.00;101849.22;4933724;29;20046;-75
2022/01/27 00:53:27;;;;;;;133.80;48.80;;;;;;;3.58;100.00;101855.53;4944945;29;20035;-76
2022/01/27 00:55:55;;;;;;;125.25;49.22;;;;;;;3.67;100.00;101849.06;4936698;28;20487;-76
2022/01/27 01:00:56;;;;;;;120.20;48.72;;;;;;;3.71;100.00;101845.38;4926623;28;20046;-76
2022/01/27 01:03:36;;;;;;;124.03;48.53;;;;;;;3.69;100.00;101840.31;4923644;28;20045;-75
2022/01/27 01:16:53;;;;;;;115.00;45.25;;;;;;;3.60;100.00;101822.59;4943828;28;20046;-75
2022/01/27 01:35:07;;;;;;;124.22;48.50;;;;;;;3.62;100.00;101784.44;4925858;28;20450;-75
2022/01/27 01:37:38;;;;;;;113.97;48.05;;;;;;;3.56;100.00;101786.47;4938088;29;20397;-76
2022/01/27 01:40:06;;;;;;;119.13;46.83;;;;;;;3.64;100.00;101790.38;4931573;28;20114;-76
2022/01/27 01:42:32;;;;;;;116.25;48.70;;;;;;;3.61;100.00;101790.50;4937308;29;20044;-77
2022/01/27 01:45:04;;;;;;;120.53;48.80;;;;;;;3.61;100.00;101787.09;4923664;28;20040;-75
2022/01/27 01:47:30;;;;;;;125.57;50.60;;;;;;;3.63;100.00;101777.47;4930022;29;20086;-76
2022/01/27 01:49:57;;;;;;;130.82;50.97;;;;;;;3.65;100.00;101778.22;4949101;28;20044;-76
2022/01/27 01:52:23;;;;;;;128.48;51.47;;;;;;;3.63;100.00;101780.91;4911411;28;20051;-75
2022/01/27 01:54:49;;;;;;;122.05;50.50;;;;;;;3.66;100.00;101762.59;4919262;28;20491;-76
2022/01/27 01:57:15;;;;;;;121.88;50.78;;;;;;;3.67;100.00;101763.44;4937247;29;20090;-76
2022/01/27 01:59:40;;;;;;;119.07;49.63;;;;;;;3.64;100.00;101766.19;4914419;29;20126;-77
2022/01/27 02:02:08;;;;;;;118.95;48.55;;;;;;;3.64;100.00;101764.44;4923414;28;20052;-75
2022/01/27 02:04:34;;;;;;;115.45;48.08;;;;;;;3.74;100.00;101753.59;4928067;29;20043;-76
2022/01/27 02:07:03;;;;;;;110.20;48.33;;;;;;;3.76;100.00;101755.19;4905929;28;20094;-76
2022/01/27 02:18:00;;;;;;;108.53;45.58;;;;;;;3.78;100.00;101749.91;4934103;29;20514;-74
2022/01/27 02:20:32;;;;;;;101.35;44.95;;;;;;;3.75;100.00;101752.66;4938522;28;20047;-75
2022/01/27 02:22:58;;;;;;;98.60;43.15;;;;;;;3.82;100.00;101754.88;4916148;28;20055;-75
2022/01/27 02:25:24;;;;;;;97.05;43.88;;;;;;;3.81;100.00;101747.19;4906142;29;20074;-75
2022/01/27 02:27:54;;;;;;;94.13;41.50;;;;;;;3.84;100.00;101753.06;4939923;28;20117;-76
2022/01/27 02:30:22;;;;;;;92.97;41.40;;;;;;;3.87;100.00;101736.47;4932654;28;20030;-76
2022/01/27 02:32:52;;;;;;;95.38;40.42;;;;;;;3.88;100.00;101723.44;4927403;29;20126;-78
2022/01/27 02:35:21;;;;;;;96.47;41.47;;;;;;;3.88;100.00;101699.19;4937971;29;20038;-77
2022/01/27 02:37:47;;;;;;;89.47;39.42;;;;;;;3.94;100.00;101705.84;4903017;29;20040;-77
2022/01/27 02:40:54;;;;;;;84.18;38.97;;;;;;;3.97;100.00;101710.88;4925019;28;20050;-77
2022/01/27 02:43:19;;;;;;;87.60;39.22;;;;;;;3.88;100.00;101694.88;4882355;29;20047;-77
2022/01/27 02:46:06;;;;;;;88.85;38.03;;;;;;;3.94;100.00;101698.91;4910171;29;20051;-76
2022/01/27 02:48:32;;;;;;;83.75;38.05;;;;;;;3.97;100.00;101700.50;4916730;29;20039;-77
2022/01/27 02:50:58;;;;;;;83.38;36.25;;;;;;;3.95;100.00;101682.41;4902455;29;20524;-78
2022/01/27 02:53:23;;;;;;;87.90;36.78;;;;;;;3.99;100.00;101677.88;4920285;29;20067;-76
2022/01/27 02:55:49;;;;;;;84.60;36.90;;;;;;;3.99;100.00;101670.09;4922021;29;20035;-76
2022/01/27 02:58:16;;;;;;;86.55;37.25;;;;;;;4.03;100.00;101662.09;4920916;29;20074;-76
2022/01/27 03:00:42;;;;;;;87.50;36.22;;;;;;;4.00;100.00;101666.59;4922463;29;20038;-76
2022/01/27 03:03:07;;;;;;;78.70;35.83;;;;;;;3.98;100.00;101673.63;4923732;28;20070;-76
2022/01/27 03:05:33;;;;;;;82.80;35.80;;;;;;;3.98;100.00;101679.66;4917323;29;20055;-76
2022/01/27 03:08:00;;;;;;;80.72;35.28;;;;;;;4.02;100.00;101680.34;4919822;28;20040;-77
2022/01/27 03:10:29;;;;;;;74.38;35.45;;;;;;;4.02;100.00;101659.56;4902077;28;20122;-76
2022/01/27 03:12:59;;;;;;;80.07;35.65;;;;;;;4.06;100.00;101661.06;4936163;28;20516;-77
2022/01/27 03:15:26;;;;;;;77.43;36.25;;;;;;;4.05;100.00;101661.97;4907329;28;20106;-75
2022/01/27 03:17:52;;;;;;;86.45;36.08;;;;;;;4.03;100.00;101656.88;4905727;29;20486;-77
2022/01/27 03:20:18;;;;;;;80.53;35.65;;;;;;;4.07;100.00;101644.59;4905207;29;20066;-76
2022/01/27 03:22:43;;;;;;;77.30;35.53;;;;;;;4.06;100.00;101651.50;4921426;29;20118;-76
2022/01/27 03:25:09;;;;;;;77.95;35.22;;;;;;;4.10;100.00;101655.63;4935291;28;20128;-76
2022/01/27 03:27:35;;;;;;;83.47;36.15;;;;;;;4.14;100.00;101642.47;4938757;28;20057;-77
2022/01/27 03:30:01;;;;;;;78.38;34.95;;;;;;;4.06;100.00;101640.28;4926735;29;20130;-76
2022/01/27 03:32:27;;;;;;;82.50;36.13;;;;;;;4.03;100.00;101630.94;4925564;29;20562;-75
2022/01/27 03:34:56;;;;;;;73.43;35.33;;;;;;;4.12;100.00;101631.34;4938137;28;20130;-77
2022/01/27 03:37:21;;;;;;;74.25;33.30;;;;;;;4.09;100.00;101609.00;4920948;29;20058;-76
2022/01/27 03:39:47;;;;;;;71.38;34.72;;;;;;;4.09;100.00;101615.00;4918273;29;20039;-77
2022/01/27 03:42:13;;;;;;;74.70;34.28;;;;;;;4.08;100.00;101610.72;4927859;29;20035;-77
2022/01/27 03:44:38;;;;;;;79.55;35.42;;;;;;;4.13;100.00;101618.28;4933283;29;20047;-77
2022/01/27 03:47:04;;;;;;;80.20;35.72;;;;;;;4.12;100.00;101616.59;4935604;29;20111;-76
2022/01/27 03:49:30;;;;;;;76.60;34.55;;;;;;;4.05;100.00;101589.28;4925714;29;20114;-75
2022/01/27 03:52:00;;;;;;;78.22;34.63;;;;;;;4.10;100.00;101603.69;4953633;28;20458;-77
2022/01/27 03:54:26;;;;;;;77.28;35.33;;;;;;;4.05;100.00;101592.72;4933929;28;20035;-76
2022/01/27 03:56:52;;;;;;;75.03;36.10;;;;;;;4.09;100.00;101596.84;4920666;29;20040;-75
2022/01/27 03:59:18;;;;;;;75.30;34.78;;;;;;;4.05;100.00;101589.28;4930308;28;20058;-76
2022/01/27 04:01:44;;;;;;;79.40;35.83;;;;;;;4.00;100.00;101579.16;4921134;29;20114;-75
2022/01/27 04:04:10;;;;;;;76.70;35.10;;;;;;;4.05;100.00;101592.72;4925990;28;20069;-76
2022/01/27 04:06:39;;;;;;;74.78;34.28;;;;;;;4.02;100.00;101573.88;4946570;29;20047;-75
2022/01/27 04:09:08;;;;;;;76.20;36.80;;;;;;;3.97;100.00;101570.69;4931868;28;20035;-76
2022/01/27 04:11:35;;;;;;;81.25;37.17;;;;;;;3.93;100.00;101576.97;4924925;29;20031;-76
2022/01/27 04:14:01;;;;;;;83.47;38.15;;;;;;;3.84;100.00;101576.56;4924248;28;20098;-76
2022/01/27 04:16:27;;;;;;;90.85;38.45;;;;;;;3.80;100.00;101576.78;4913501;29;20035;-76
2022/01/27 04:18:53;;;;;;;86.28;38.95;;;;;;;3.74;100.00;101558.97;4924431;28;20466;-76
2022/01/27 04:21:19;;;;;;;89.85;39.15;;;;;;;3.70;100.00;101564.31;4916160;28;20031;-76
2022/01/27 04:23:45;;;;;;;82.95;38.38;;;;;;;3.67;100.00;101561.03;4917463;29;20526;-76
2022/01/27 04:26:14;;;;;;;87.93;40.42;;;;;;;3.61;100.00;101554.41;4934035;28;20070;-77
2022/01/27 04:28:43;;;;;;;86.97;38.70;;;;;;;3.59;100.00;101555.44;4916515;29;20515;-76
2022/01/27 04:31:10;;;;;;;101.95;41.47;;;;;;;3.47;100.00;101552.56;4931472;28;20518;-76
2022/01/27 04:33:38;;;;;;;94.05;42.40;;;;;;;3.49;100.00;101550.72;4902225;29;20051;-76
2022/01/27 04:36:11;;;;;;;94.35;41.30;;;;;;;3.49;100.00;101550.72;4933668;28;20094;-76
2022/01/27 04:44:05;;;;;;;90.82;40.80;;;;;;;3.48;100.00;101538.69;4933481;28;20117;-76
2022/01/27 04:46:45;;;;;;;92.28;42.33;;;;;;;3.45;100.00;101536.25;4928336;29;20047;-76
2022/01/27 04:49:12;;;;;;;99.78;42.15;;;;;;;3.44;100.00;101537.16;4944831;28;20379;-77
2022/01/27 04:51:38;;;;;;;102.82;41.70;;;;;;;3.40;100.00;101522.69;4918731;29;20027;-75
2022/01/27 04:54:14;;;;;;;92.07;41.38;;;;;;;3.43;100.00;101532.06;4919340;28;20043;-76
2022/01/27 04:56:41;;;;;;;102.22;43.22;;;;;;;3.43;100.00;101535.50;4938762;29;20037;-75
2022/01/27 04:59:17;;;;;;;93.38;40.83;;;;;;;3.40;100.00;101525.28;4924290;28;20051;-76
2022/01/27 05:01:49;;;;;;;101.43;40.38;;;;;;;3.41;100.00;101526.97;4926437;29;20107;-77
2022/01/27 05:04:18;;;;;;;92.15;41.38;;;;;;;3.30;100.00;101514.56;4933355;28;20043;-76
2022/01/27 05:06:45;;;;;;;86.38;39.58;;;;;;;3.37;100.00;101506.44;4910292;29;20040;-75
2022/01/27 05:09:10;;;;;;;95.80;40.80;;;;;;;3.38;100.00;101508.13;4925458;28;20047;-75
2022/01/27 05:11:44;;;;;;;87.47;38.67;;;;;;;3.35;100.00;101506.50;4920226;29;20038;-75
2022/01/27 05:14:18;;;;;;;91.40;40.33;;;;;;;3.35;100.00;101495.31;4924671;28;20073;-75
2022/01/27 05:16:43;;;;;;;84.28;38.97;;;;;;;3.34;100.00;101502.25;4916040;29;20443;-75
2022/01/27 05:19:09;;;;;;;92.40;38.75;;;;;;;3.33;100.00;101489.38;4941635;28;20044;-76
2022/01/27 05:21:35;;;;;;;92.03;39.75;;;;;;;3.35;100.00;101482.34;4922038;28;20462;-76
2022/01/27 05:24:02;;;;;;;91.00;41.10;;;;;;;3.30;100.00;101483.44;4935944;28;20047;-76
2022/01/27 05:26:28;;;;;;;95.13;41.17;;;;;;;3.28;100.00;101476.66;4934421;29;20043;-76
2022/01/27 05:28:54;;;;;;;88.78;39.53;;;;;;;3.26;100.00;101476.75;4936011;28;20039;-76
2022/01/27 05:31:20;;;;;;;101.80;42.03;;;;;;;3.34;100.00;101470.31;4917841;29;20483;-75
2022/01/27 05:33:46;;;;;;;95.13;41.67;;;;;;;3.27;100.00;101473.22;4936606;29;20035;-76
2022/01/27 05:36:11;;;;;;;91.15;40.88;;;;;;;3.31;100.00;101472.16;4927096;28;20031;-76
2022/01/27 05:38:38;;;;;;;83.32;39.78;;;;;;;3.35;100.00;101479.75;4930135;29;20086;-75
2022/01/27 05:41:05;;;;;;;88.72;37.75;;;;;;;3.30;100.00;101460.09;4918292;28;20040;-75
2022/01/27 05:43:32;;;;;;;88.90;39.05;;;;;;;3.29;100.00;101467.94;4946650;28;20114;-73
2022/01/27 05:45:58;;;;;;;81.35;36.35;;;;;;;3.26;100.00;101456.00;4921597;28;20047;-76
2022/01/27 05:48:24;;;;;;;76.35;35.88;;;;;;;3.28;100.00;101451.56;4930357;29;20043;-76
2022/01/27 05:50:49;;;;;;;75.80;36.55;;;;;;;3.29;100.00;101458.41;4934888;28;20047;-75
2022/01/27 05:53:16;;;;;;;73.80;34.30;;;;;;;3.25;100.00;101464.69;4919028;29;20104;-75
2022/01/27 05:55:41;;;;;;;68.63;32.35;;;;;;;3.29;100.00;101453.22;4934971;29;20150;-74
2022/01/27 05:58:07;;;;;;;76.22;34.00;;;;;;;3.31;100.00;101450.56;4932206;29;20461;-75
2022/01/27 06:00:34;;;;;;;76.13;33.28;;;;;;;3.31;100.00;101447.97;4933025;29;20062;-76
2022/01/27 06:02:59;;;;;;;71.78;33.42;;;;;;;3.30;100.00;101446.31;4919101;28;20057;-75
2022/01/27 06:05:27;;;;;;;73.57;33.08;;;;;;;3.34;100.00;101437.44;4945274;28;20491;-76
2022/01/27 06:07:53;;;;;;;71.35;31.63;;;;;;;3.36;100.00;101448.56;4944409;28;20065;-74
2022/01/27 06:10:19;;;;;;;67.78;32.72;;;;;;;3.32;100.00;101431.50;4939173;28;20031;-75
2022/01/27 06:12:51;;;;;;;68.07;33.45;;;;;;;3.38;100.00;101432.91;4938235;29;20039;-75
2022/01/27 06:15:18;;;;;;;68.83;34.27;;;;;;;3.38;100.00;101414.78;4921905;29;20047;-76
2022/01/27 06:17:44;;;;;;;67.90;32.50;;;;;;;3.36;100.00;101416.59;4941131;28;20767;-75
2022/01/27 06:20:10;;;;;;;69.63;33.33;;;;;;;3.36;100.00;101411.44;4951740;28;20039;-75
2022/01/27 06:22:36;;;;;;;69.57;32.63;;;;;;;3.33;100.00;101401.22;4932004;29;20035;-75
2022/01/27 06:25:03;;;;;;;66.20;31.73;;;;;;;3.36;100.00;101404.47;4941141;28;20079;-75
2022/01/27 06:27:29;;;;;;;61.72;30.75;;;;;;;3.36;100.00;101398.47;4944125;28;20047;-75
2022/01/27 06:29:55;;;;;;;61.63;31.20;;;;;;;3.35;100.00;101395.00;4954436;28;20066;-75
2022/01/27 06:32:21;;;;;;;65.20;32.72;;;;;;;3.36;100.00;101388.91;4941097;29;20103;-76
2022/01/27 06:34:46;;;;;;;63.85;30.92;;;;;;;3.42;100.00;101388.56;4923822;29;20043;-74
2022/01/27 06:37:13;;;;;;;65.85;30.95;;;;;;;3.40;100.00;101385.22;4927131;28;20090;-75
2022/01/27 06:39:38;;;;;;;65.72;31.27;;;;;;;3.41;100.00;101401.63;4922076;29;20049;-75
2022/01/27 06:42:07;;;;;;;63.03;32.58;;;;;;;3.38;100.00;101383.66;4934613;28;20035;-76
2022/01/27 06:44:34;;;;;;;68.55;33.30;;;;;;;3.39;100.00;101380.13;4950588;28;20043;-74
2022/01/27 06:47:00;;;;;;;69.85;32.88;;;;;;;3.36;100.00;101382.91;4949270;28;20039;-75
2022/01/27 06:49:26;;;;;;;71.60;33.70;;;;;;;3.39;100.00;101378.38;4941391;28;20054;-75
2022/01/27 06:51:52;;;;;;;67.13;32.45;;;;;;;3.45;100.00;101388.41;4925177;28;20031;-75
2022/01/27 06:54:18;;;;;;;74.30;33.42;;;;;;;3.44;100.00;101380.72;4938017;28;20046;-74
2022/01/27 06:56:45;;;;;;;69.38;33.25;;;;;;;3.44;100.00;101378.13;4942381;29;20519;-76
2022/01/27 06:59:10;;;;;;;69.65;33.35;;;;;;;3.46;100.00;101369.31;4939409;28;20078;-75
2022/01/27 07:01:36;;;;;;;70.15;33.38;;;;;;;3.45;100.00;101370.25;4943892;28;20070;-75
2022/01/27 07:04:02;;;;;;;68.68;32.38;;;;;;;3.49;100.00;101370.94;4927297;28;20406;-75
2022/01/27 07:06:28;;;;;;;73.82;30.70;;;;;;;3.54;100.00;101376.66;4934927;29;20454;-75
2022/01/27 07:08:54;;;;;;;67.57;32.33;;;;;;;3.50;100.00;101365.66;4932589;28;20063;-76
2022/01/27 07:11:20;;;;;;;68.50;31.23;;;;;;;3.52;100.00;101352.56;4959988;28;20027;-74
2022/01/27 07:13:45;;;;;;;64.95;30.70;;;;;;;3.51;100.00;101371.69;4939267;29;20043;-75
2022/01/27 07:16:11;;;;;;;67.28;31.35;;;;;;;3.53;100.00;101361.22;4938278;28;20045;-75
2022/01/27 07:18:37;;;;;;;64.50;30.92;;;;;;;3.55;100.00;101367.97;4936429;29;20383;-76
2022/01/27 07:21:03;;;;;;;65.15;31.27;;;;;;;3.54;100.00;101361.09;4920736;28;20071;-74
2022/01/27 07:23:29;;;;;;;62.08;29.90;;;;;;;3.56;100.00;101355.84;4922744;29;20044;-76
2022/01/27 07:25:55;;;;;;;61.70;30.35;;;;;;;3.55;100.00;101349.81;4921289;28;20641;-76
2022/01/27 07:28:21;;;;;;;57.35;29.50;;;;;;;3.57;100.00;101358.34;4920895;28;20043;-75
2022/01/27 07:30:47;;;;;;;63.78;31.70;;;;;;;3.58;100.00;101351.41;4924233;29;20043;-75
2022/01/27 07:33:12;;;;;;;63.97;30.70;;;;;;;3.61;100.00;101346.03;4947093;28;20046;-76
2022/01/27 07:35:38;;;;;;;60.30;30.02;;;;;;;3.63;100.00;101346.78;4917862;29;20050;-75
2022/01/27 07:38:07;;;;;;;60.08;29.70;;;;;;;3.58;100.00;101335.84;4935090;28;20543;-75
2022/01/27 07:40:33;;;;;;;61.90;30.52;;;;;;;3.63;100.00;101346.78;4908167;29;20039;-76
2022/01/27 07:43:00;;;;;;;58.15;28.90;;;;;;;3.62;100.00;101347.75;4933325;28;20051;-76
2022/01/27 07:45:25;;;;;;;55.33;28.27;;;;;;;3.64;100.00;101345.88;4897508;29;20071;-74
2022/01/27 07:47:51;;;;;;;59.08;29.65;;;;;;;3.62;100.00;101356.34;4931576;28;20105;-75
2022/01/27 07:50:17;;;;;;;57.63;30.20;;;;;;;3.63;100.00;101352.81;4902408;29;20034;-75
2022/01/27 07:52:42;;;;;;;59.25;30.17;;;;;;;3.59;100.00;101337.53;4944693;28;20054;-76
2022/01/27 07:55:09;;;;;;;60.03;30.15;;;;;;;3.62;100.00;101332.16;4934250;28;20043;-75
2022/01/27 07:57:35;;;;;;;65.60;32.58;;;;;;;3.66;100.00;101338.84;4921197;29;20041;-76
2022/01/27 08:00:02;;;;;;;61.70;32.35;;;;;;;3.63;100.00;101337.25;4945725;28;20040;-76
2022/01/27 08:02:38;;;;;;;55.55;29.60;;;;;;;3.73;100.00;101328.94;4936555;29;20042;-76
2022/01/27 08:05:04;;;;;;;61.50;31.67;;;;;;;3.64;100.00;101330.31;4931208;28;20047;-74
2022/01/27 08:07:30;;;;;;;61.45;32.03;;;;;;;3.74;100.00;101326.25;4918317;29;20051;-74
2022/01/27 08:09:56;;;;;;;61.17;31.08;;;;;;;3.68;100.00;101326.63;4927273;28;20050;-74
2022/01/27 08:12:23;;;;;;;62.38;30.92;;;;;;;3.70;100.00;101309.22;4907297;28;20039;-75
2022/01/27 08:14:50;;;;;;;58.03;29.55;;;;;;;3.73;100.00;101308.19;4923546;28;20108;-75
2022/01/27 08:17:17;;;;;;;56.30;29.95;;;;;;;3.77;100.00;101302.75;4938704;28;20031;-74
2022/01/27 08:19:43;;;;;;;54.97;28.77;;;;;;;3.82;100.00;101303.28;4921482;29;20131;-75
2022/01/27 08:22:10;;;;;;;53.25;27.67;;;;;;;3.81;100.00;101311.19;4918732;28;20085;-75
2022/01/27 08:24:37;;;;;;;55.40;28.02;;;;;;;3.85;100.00;101310.09;4937813;29;20046;-75
2022/01/27 08:27:05;;;;;;;49.30;25.58;;;;;;;3.88;100.00;101308.16;4916643;29;20053;-73
2022/01/27 08:29:46;;;;;;;48.80;25.27;;;;;;;3.91;100.00;101304.53;4919395;29;20039;-74
2022/01/27 08:32:17;;;;;;;48.95;25.75;;;;;;;3.90;100.00;101289.91;4914333;28;20031;-73
2022/01/27 08:34:44;;;;;;;49.83;25.30;;;;;;;3.95;100.00;101303.41;4921240;29;20078;-74
2022/01/27 08:37:13;;;;;;;50.72;25.55;;;;;;;3.97;100.00;101286.00;4922846;28;20102;-75
2022/01/27 08:39:39;;;;;;;45.08;25.23;;;;;;;4.00;100.00;101295.38;4920620;29;20062;-75
2022/01/27 08:42:07;;;;;;;44.20;24.70;;;;;;;3.92;100.00;101287.19;4928765;28;20090;-75
2022/01/27 08:44:33;;;;;;;41.47;22.45;;;;;;;3.99;100.00;101288.50;4929988;29;20039;-75
2022/01/27 08:47:00;;;;;;;41.53;23.20;;;;;;;3.99;100.00;101280.72;4920451;28;20054;-74
2022/01/27 08:49:27;;;;;;;40.80;22.50;;;;;;;4.03;100.00;101295.19;4920431;29;20710;-75
2022/01/27 08:51:54;;;;;;;41.08;22.48;;;;;;;4.06;100.00;101293.25;4937389;28;20035;-74
2022/01/27 08:54:20;;;;;;;39.47;21.17;;;;;;;4.10;100.00;101281.75;4943818;29;20448;-75
2022/01/27 08:56:46;;;;;;;38.00;21.27;;;;;;;4.09;100.00;101290.47;4921332;29;20114;-74
2022/01/27 08:59:13;;;;;;;40.95;21.40;;;;;;;4.15;100.00;101291.03;4917431;28;20123;-74
2022/01/27 09:01:40;;;;;;;45.40;23.13;;;;;;;4.18;100.00;101285.66;4919971;29;20059;-74
2022/01/27 09:04:06;;;;;;;38.95;21.48;;;;;;;4.17;100.00;101282.22;4930676;28;20047;-75
2022/01/27 09:06:33;;;;;;;40.10;22.65;;;;;;;4.23;100.00;101262.84;4909558;29;20060;-75
2022/01/27 09:08:59;;;;;;;39.97;22.38;;;;;;;4.22;100.00;101269.81;4926689;28;20038;-74
2022/01/27 09:11:25;;;;;;;36.58;20.45;;;;;;;4.27;100.00;101277.31;4937089;28;20051;-75
2022/01/27 09:13:53;;;;;;;33.92;20.02;;;;;;;4.27;100.00;101264.31;4939865;29;20043;-74
2022/01/27 09:16:19;;;;;;;36.47;19.63;;;;;;;4.28;100.00;101266.84;4900871;29;20035;-75
2022/01/27 09:18:47;;;;;;;34.22;19.05;;;;;;;4.31;100.00;101257.19;4938328;29;20491;-74
2022/01/27 09:21:19;;;;;;;32.28;18.90;;;;;;;4.32;100.00;101266.66;4935890;28;20078;-75
2022/01/27 09:23:47;;;;;;;33.33;19.08;;;;;;;4.35;100.00;101259.50;4934143;29;20043;-75
2022/01/27 09:26:38;;;;;;;33.33;18.98;;;;;;;4.37;100.00;101264.59;4920827;29;20046;-74
2022/01/27 09:29:02;;;;;;;30.92;17.85;;;;;;;4.41;100.00;101264.31;4934843;28;20039;-74
2022/01/27 09:31:27;;;;;;;30.55;17.77;;;;;;;4.39;100.00;101260.13;4932633;29;20491;-74
2022/01/27 09:33:53;;;;;;;30.15;16.60;;;;;;;4.45;100.00;101262.38;4916957;28;20043;-74
2022/01/27 09:36:19;;;;;;;27.42;15.77;;;;;;;4.48;100.00;101267.38;4903836;29;20514;-73
2022/01/27 09:38:44;;;;;;;33.00;17.05;;;;;;;4.51;100.00;101255.97;4921023;29;20127;-75
2022/01/27 09:41:14;;;;;;;25.52;15.38;;;;;;;4.52;100.00;101250.69;4916977;28;20119;-74
2022/01/27 09:43:41;;;;;;;24.63;13.85;;;;;;;4.56;100.00;101244.38;4923364;29;20035;-74
2022/01/27 09:46:11;;;;;;;24.70;13.90;;;;;;;4.59;100.00;101257.16;4936814;28;20036;-74
2022/01/27 09:48:42;;;;;;;22.45;12.38;;;;;;;4.58;100.00;101252.91;4930546;29;20059;-75
2022/01/27 09:53:47;;;;;;;21.67;11.25;;;;;;;4.62;100.00;101261.34;4921940;29;20082;-74
2022/01/27 09:56:15;;;;;;;21.00;11.38;;;;;;;4.66;100.00;101257.63;4936524;28;20049;-75
2022/01/27 09:58:41;;;;;;;20.52;11.55;;;;;;;4.68;100.00;101251.38;4938666;29;20046;-75
2022/01/27 10:01:07;;;;;;;20.83;11.20;;;;;;;4.64;100.00;101254.28;4924291;28;20047;-74
2022/01/27 10:03:33;;;;;;;19.15;11.50;;;;;;;4.66;100.00;101252.41;4926835;29;20126;-75
2022/01/27 10:06:15;;;;;;;19.20;10.38;;;;;;;4.69;100.00;101262.63;4921992;28;20062;-75
2022/01/27 10:08:42;;;;;;;19.77;10.30;;;;;;;4.76;100.00;101263.06;4940425;29;20039;-75
2022/01/27 10:11:18;;;;;;;16.85;10.80;;;;;;;4.79;100.00;101262.88;4904867;28;20044;-74
2022/01/27 10:13:46;;;;;;;16.40;10.30;;;;;;;4.83;100.00;101256.56;4936518;29;20122;-74
2022/01/27 10:16:35;;;;;;;17.45;9.95;;;;;;;4.84;100.00;101251.28;4924846;28;20046;-74
2022/01/27 10:19:06;;;;;;;17.75;10.60;;;;;;;4.87;100.00;101250.22;4940777;28;20035;-75
2022/01/27 10:21:34;;;;;;;22.25;10.52;;;;;;;4.93;100.00;101247.22;4937678;29;20047;-73
2022/01/27 10:24:26;;;;;;;20.73;10.55;;;;;;;4.91;100.00;101243.91;4934031;28;20507;-73
2022/01/27 10:27:44;;;;;;;26.08;11.32;;;;;;;4.92;100.00;101242.97;4933275;28;20098;-73
2022/01/27 10:32:55;;;;;;;21.48;11.55;;;;;;;4.96;100.00;101241.84;4946077;28;20043;-74
2022/01/27 10:35:23;;;;;;;27.05;12.93;;;;;;;4.99;100.00;101241.66;4938066;29;20491;-73
2022/01/27 10:38:14;;;;;;;22.63;11.82;;;;;;;5.04;100.00;101243.97;4936947;28;20042;-73
2022/01/27 10:40:43;;;;;;;28.08;12.18;;;;;;;5.12;100.00;101238.25;4944832;28;20039;-75
2022/01/27 10:43:15;;;;;;;27.10;13.02;;;;;;;5.20;100.00;101242.03;4947712;28;20047;-74
2022/01/27 10:46:00;;;;;;;28.27;13.00;;;;;;;5.25;100.00;101252.13;4919071;29;20495;-74
2022/01/27 10:48:30;;;;;;;27.35;12.70;;;;;;;5.25;100.00;101258.19;4943138;28;20058;-72
2022/01/27 10:51:14;;;;;;;28.63;13.45;;;;;;;5.22;100.00;101258.38;4924190;28;20071;-73
2022/01/27 10:53:50;;;;;;;34.63;13.82;;;;;;;5.20;100.00;101262.03;4954698;28;20035;-73
2022/01/27 10:56:21;;;;;;;33.53;14.52;;;;;;;5.17;100.00;101260.44;4938619;28;20046;-74
2022/01/27 10:58:47;;;;;;;35.37;15.40;;;;;;;5.28;100.00;101253.72;4921820;29;20055;-74
2022/01/27 11:01:36;;;;;;;38.08;15.05;;;;;;;5.40;100.00;101258.94;4952741;28;20042;-74
2022/01/27 11:04:05;;;;;;;30.85;14.80;;;;;;;5.40;100.00;101261.53;4921805;28;20039;-74
2022/01/27 11:06:33;;;;;;;34.78;14.75;;;;;;;5.42;100.00;101256.25;4940444;29;20090;-73
2022/01/27 11:09:07;;;;;;;43.00;14.93;;;;;;;5.68;100.00;101251.91;4939075;28;20083;-74
2022/01/27 11:11:34;;;;;;;40.88;14.73;;;;;;;5.75;100.00;101249.75;4943184;29;20098;-74
2022/01/27 11:14:00;;;;;;;32.45;13.60;;;;;;;5.84;100.00;101256.94;4931135;28;20047;-75
2022/01/27 11:16:34;;;;;;;34.15;13.20;;;;;;;5.91;100.00;101255.56;4918966;29;20047;-74
2022/01/27 11:19:14;;;;;;;33.95;13.63;;;;;;;5.89;100.00;101244.44;4922868;28;20674;-74
2022/01/27 11:21:44;;;;;;;42.75;13.68;;;;;;;5.91;100.00;101239.13;4916725;29;20067;-75
2022/01/27 11:24:26;;;;;;;35.67;14.40;;;;;;;6.09;100.00;101242.28;4922956;28;20054;-74
2022/01/27 11:26:56;;;;;;;41.15;13.15;;;;;;;6.10;100.00;101236.13;4928938;28;20039;-73
2022/01/27 11:29:24;;;;;;;50.88;14.27;;;;;;;6.11;100.00;101236.03;4915560;29;20047;-74
2022/01/27 11:32:13;;;;;;;39.33;13.20;;;;;;;6.09;100.00;101237.91;4945177;28;20109;-73
2022/01/27 11:34:52;;;;;;;34.85;13.20;;;;;;;6.03;100.00;101233.97;4921650;29;20043;-74
2022/01/27 11:37:39;;;;;;;35.03;12.30;;;;;;;6.07;100.00;101239.78;4935210;29;20113;-74
2022/01/27 11:40:12;;;;;;;39.55;12.18;;;;;;;6.03;100.00;101239.16;4936513;28;20495;-73
2022/01/27 11:42:37;;;;;;;;;;;;;;;6.09;100.00;101237.09;4923379;29;20094;-75
2022/01/27 11:45:39;;;;;;;39.13;11.68;;;;;;;6.16;100.00;101230.50;4949513;28;19922;-74
2022/01/27 11:48:12;;;;;;;43.95;12.02;;;;;;;6.16;100.00;101231.34;4936052;28;20050;-74
2022/01/27 11:50:54;;;;;;;41.72;11.77;;;;;;;6.15;100.00;101234.06;4942319;28;20071;-74
2022/01/27 11:53:48;;;;;;;40.08;12.45;;;;;;;6.26;100.00;101247.16;4937135;29;20239;-73
2022/01/27 11:56:23;;;;;;;42.53;11.60;;;;;;;6.38;100.00;101235.88;4935298;28;20045;-74
2022/01/27 11:58:52;;;;;;;39.80;10.23;;;;;;;6.52;100.00;101231.50;4941339;28;20039;-75
2022/01/27 12:01:27;;;;;;;52.15;9.57;;;;;;;6.56;100.00;101238.97;4934301;28;20081;-73
2022/01/27 12:04:02;;;;;;;46.90;10.23;;;;;;;6.56;100.00;101233.78;4932614;28;20491;-74
2022/01/27 12:06:32;;;;;;;47.75;8.25;;;;;;;6.54;100.00;101230.44;4929144;28;20044;-74
2022/01/27 12:09:19;;;;;;;42.67;8.02;;;;;;;6.71;100.00;101231.84;4935823;28;20031;-74